sensor_id;sensor_type;location;lat;lon;timestamp;temperature;humidity
52107;DHT22;38105;52.968;5.974;2023-01-01T00:00:04;13.20;99.90
52107;DHT22;38105;52.968;5.974;2023-01-01T00:02:31;13.20;99.90
52107;DHT22;38105;52.968;5.974;2023-01-01T00:05:03;13.20;99.90
52107;DHT22;38105;52.968;5.974;2023-01-01T00:07:32;13.20;99.90
52107;DHT22;38105;52.968;5.974;2023-01-01T00:10:03;13.30;99.90
52107;DHT22;38105;52.968;5.974;2023-01-01T00:12:51;13.30;99.90
52107;DHT22;38105;52.968;5.974;2023-01-01T00:15:25;13.30;99.90
52107;DHT22;38105;52.968;5.974;2023-01-01T00:17:52;13.30;99.90
52107;DHT22;38105;52.968;5.974;2023-01-01T00:20:27;13.20;99.90
52107;DHT22;38105;52.968;5.974;2023-01-01T00:22:55;13.30;99.90
52107;DHT22;38105;52.968;5.974;2023-01-01T00:25:26;13.20;99.90
52107;DHT22;38105;52.968;5.974;2023-01-01T00:27:54;13.20;99.90
52107;DHT22;38105;52.968;5.974;2023-01-01T00:30:25;13.20;99.90
52107;DHT22;38105;52.968;5.974;2023-01-01T00:32:54;13.20;99.90
52107;DHT22;38105;52.968;5.974;2023-01-01T00:35:24;13.20;99.90
52107;DHT22;38105;52.968;5.974;2023-01-01T00:37:53;13.20;99.90
52107;DHT22;38105;52.968;5.974;2023-01-01T00:40:24;13.30;99.90
52107;DHT22;38105;52.968;5.974;2023-01-01T00:42:55;13.20;99.90
52107;DHT22;38105;52.968;5.974;2023-01-01T00:45:24;13.20;99.90
52107;DHT22;38105;52.968;5.974;2023-01-01T00:47:55;13.20;99.90
52107;DHT22;38105;52.968;5.974;2023-01-01T00:50:25;13.10;99.90
52107;DHT22;38105;52.968;5.974;2023-01-01T00:52:58;13.10;99.90
52107;DHT22;38105;52.968;5.974;2023-01-01T00:55:26;13.20;99.90
52107;DHT22;38105;52.968;5.974;2023-01-01T00:57:57;13.10;99.90
52107;DHT22;38105;52.968;5.974;2023-01-01T01:00:26;13.10;99.90
52107;DHT22;38105;52.968;5.974;2023-01-01T01:02:56;13.10;99.90
52107;DHT22;38105;52.968;5.974;2023-01-01T01:05:25;13.00;99.90
52107;DHT22;38105;52.968;5.974;2023-01-01T01:07:53;13.00;99.90
52107;DHT22;38105;52.968;5.974;2023-01-01T01:10:22;13.00;99.90
52107;DHT22;38105;52.968;5.974;2023-01-01T01:12:53;12.90;99.90
52107;DHT22;38105;52.968;5.974;2023-01-01T01:15:19;12.90;99.90
52107;DHT22;38105;52.968;5.974;2023-01-01T01:17:47;12.90;99.90
52107;DHT22;38105;52.968;5.974;2023-01-01T01:20:13;12.90;99.90
52107;DHT22;38105;52.968;5.974;2023-01-01T01:22:41;12.90;99.90
52107;DHT22;38105;52.968;5.974;2023-01-01T01:25:07;12.80;99.90
52107;DHT22;38105;52.968;5.974;2023-01-01T01:27:36;12.70;99.90
52107;DHT22;38105;52.968;5.974;2023-01-01T01:30:04;12.70;99.90
52107;DHT22;38105;52.968;5.974;2023-01-01T01:32:30;12.70;99.90
52107;DHT22;38105;52.968;5.974;2023-01-01T01:35:01;12.60;99.90
52107;DHT22;38105;52.968;5.974;2023-01-01T01:37:30;12.50;99.90
52107;DHT22;38105;52.968;5.974;2023-01-01T01:39:59;12.40;99.90
52107;DHT22;38105;52.968;5.974;2023-01-01T01:42:33;12.40;99.90
52107;DHT22;38105;52.968;5.974;2023-01-01T01:45:01;12.30;99.90
52107;DHT22;38105;52.968;5.974;2023-01-01T01:50:15;12.30;99.90
52107;DHT22;38105;52.968;5.974;2023-01-01T01:55:43;12.20;99.90
52107;DHT22;38105;52.968;5.974;2023-01-01T01:58:13;12.20;99.90
52107;DHT22;38105;52.968;5.974;2023-01-01T02:00:42;12.20;99.90
52107;DHT22;38105;52.968;5.974;2023-01-01T02:03:27;12.20;99.90
52107;DHT22;38105;52.968;5.974;2023-01-01T02:05:55;12.20;99.90
52107;DHT22;38105;52.968;5.974;2023-01-01T02:08:22;12.20;99.90
52107;DHT22;38105;52.968;5.974;2023-01-01T02:10:51;12.30;99.90
52107;DHT22;38105;52.968;5.974;2023-01-01T02:13:17;12.30;99.90
52107;DHT22;38105;52.968;5.974;2023-01-01T02:15:54;12.40;99.90
52107;DHT22;38105;52.968;5.974;2023-01-01T02:19:33;12.40;99.90
52107;DHT22;38105;52.968;5.974;2023-01-01T02:21:38;12.40;99.90
52107;DHT22;38105;52.968;5.974;2023-01-01T02:24:22;12.40;99.90
52107;DHT22;38105;52.968;5.974;2023-01-01T02:29:57;12.40;99.90
52107;DHT22;38105;52.968;5.974;2023-01-01T02:32:39;12.40;99.90
52107;DHT22;38105;52.968;5.974;2023-01-01T02:35:15;12.50;99.90
52107;DHT22;38105;52.968;5.974;2023-01-01T02:38:25;12.40;99.90
52107;DHT22;38105;52.968;5.974;2023-01-01T02:41:05;12.40;99.90
52107;DHT22;38105;52.968;5.974;2023-01-01T02:43:32;12.40;99.90
52107;DHT22;38105;52.968;5.974;2023-01-01T02:46:08;12.50;99.90
52107;DHT22;38105;52.968;5.974;2023-01-01T02:51:05;12.60;99.90
52107;DHT22;38105;52.968;5.974;2023-01-01T02:53:36;12.60;99.90
52107;DHT22;38105;52.968;5.974;2023-01-01T02:56:32;12.60;99.90
52107;DHT22;38105;52.968;5.974;2023-01-01T03:05:10;12.60;99.90
52107;DHT22;38105;52.968;5.974;2023-01-01T03:10:15;12.60;99.90
52107;DHT22;38105;52.968;5.974;2023-01-01T03:12:53;12.60;99.90
52107;DHT22;38105;52.968;5.974;2023-01-01T03:18:19;12.40;99.90
52107;DHT22;38105;52.968;5.974;2023-01-01T03:20:53;12.20;99.90
52107;DHT22;38105;52.968;5.974;2023-01-01T03:23:28;12.20;99.90
52107;DHT22;38105;52.968;5.974;2023-01-01T03:26:02;12.10;99.90
52107;DHT22;38105;52.968;5.974;2023-01-01T03:28:35;11.80;99.90
52107;DHT22;38105;52.968;5.974;2023-01-01T03:31:02;11.60;99.90
52107;DHT22;38105;52.968;5.974;2023-01-01T03:36:06;11.30;99.90
52107;DHT22;38105;52.968;5.974;2023-01-01T03:38:47;11.50;99.90
52107;DHT22;38105;52.968;5.974;2023-01-01T03:43:55;11.30;99.90
52107;DHT22;38105;52.968;5.974;2023-01-01T03:46:32;11.00;99.90
52107;DHT22;38105;52.968;5.974;2023-01-01T03:48:59;11.30;99.90
52107;DHT22;38105;52.968;5.974;2023-01-01T03:57:36;11.10;99.90
52107;DHT22;38105;52.968;5.974;2023-01-01T04:00:12;11.00;99.90
52107;DHT22;38105;52.968;5.974;2023-01-01T04:03:05;11.30;99.90
52107;DHT22;38105;52.968;5.974;2023-01-01T04:05:39;11.10;99.90
52107;DHT22;38105;52.968;5.974;2023-01-01T04:08:08;10.90;99.90
52107;DHT22;38105;52.968;5.974;2023-01-01T04:10:36;11.30;99.90
52107;DHT22;38105;52.968;5.974;2023-01-01T04:13:06;10.90;99.90
52107;DHT22;38105;52.968;5.974;2023-01-01T04:15:34;11.00;99.90
52107;DHT22;38105;52.968;5.974;2023-01-01T04:18:00;11.20;99.90
52107;DHT22;38105;52.968;5.974;2023-01-01T04:20:26;10.80;99.90
52107;DHT22;38105;52.968;5.974;2023-01-01T04:22:58;11.00;99.90
52107;DHT22;38105;52.968;5.974;2023-01-01T04:25:24;11.00;99.90
52107;DHT22;38105;52.968;5.974;2023-01-01T04:27:50;10.80;99.90
52107;DHT22;38105;52.968;5.974;2023-01-01T04:30:18;11.10;99.90
52107;DHT22;38105;52.968;5.974;2023-01-01T04:32:46;10.90;99.90
52107;DHT22;38105;52.968;5.974;2023-01-01T04:35:14;10.80;99.90
52107;DHT22;38105;52.968;5.974;2023-01-01T04:37:43;11.10;99.90
52107;DHT22;38105;52.968;5.974;2023-01-01T04:40:10;10.90;99.90
52107;DHT22;38105;52.968;5.974;2023-01-01T04:42:36;10.80;99.90
52107;DHT22;38105;52.968;5.974;2023-01-01T04:45:05;10.80;99.90
52107;DHT22;38105;52.968;5.974;2023-01-01T04:47:31;11.10;99.90
52107;DHT22;38105;52.968;5.974;2023-01-01T04:49:59;10.90;99.90
52107;DHT22;38105;52.968;5.974;2023-01-01T04:52:26;11.10;99.90
52107;DHT22;38105;52.968;5.974;2023-01-01T04:54:54;10.90;99.90
52107;DHT22;38105;52.968;5.974;2023-01-01T04:57:22;11.00;99.90
52107;DHT22;38105;52.968;5.974;2023-01-01T04:59:48;10.90;99.90
52107;DHT22;38105;52.968;5.974;2023-01-01T05:02:16;10.90;99.90
52107;DHT22;38105;52.968;5.974;2023-01-01T05:04:44;11.00;99.90
52107;DHT22;38105;52.968;5.974;2023-01-01T05:07:09;11.00;99.90
52107;DHT22;38105;52.968;5.974;2023-01-01T05:09:38;11.00;99.90
52107;DHT22;38105;52.968;5.974;2023-01-01T05:12:06;11.00;99.90
52107;DHT22;38105;52.968;5.974;2023-01-01T05:14:35;11.20;99.90
52107;DHT22;38105;52.968;5.974;2023-01-01T05:17:00;11.20;99.90
52107;DHT22;38105;52.968;5.974;2023-01-01T05:19:26;11.20;99.90
52107;DHT22;38105;52.968;5.974;2023-01-01T05:21:54;11.10;99.90
52107;DHT22;38105;52.968;5.974;2023-01-01T05:24:22;11.10;99.90
52107;DHT22;38105;52.968;5.974;2023-01-01T05:26:53;11.10;99.90
52107;DHT22;38105;52.968;5.974;2023-01-01T05:29:24;11.10;99.90
52107;DHT22;38105;52.968;5.974;2023-01-01T05:31:53;11.10;99.90
52107;DHT22;38105;52.968;5.974;2023-01-01T05:34:22;11.10;99.90
52107;DHT22;38105;52.968;5.974;2023-01-01T05:36:52;11.00;99.90
52107;DHT22;38105;52.968;5.974;2023-01-01T05:39:21;11.10;99.90
52107;DHT22;38105;52.968;5.974;2023-01-01T05:41:54;11.00;99.90
52107;DHT22;38105;52.968;5.974;2023-01-01T05:44:24;11.00;99.90
52107;DHT22;38105;52.968;5.974;2023-01-01T05:46:50;11.00;99.90
52107;DHT22;38105;52.968;5.974;2023-01-01T05:49:19;10.90;99.90
52107;DHT22;38105;52.968;5.974;2023-01-01T05:51:44;11.00;99.90
52107;DHT22;38105;52.968;5.974;2023-01-01T05:54:15;11.00;99.90
52107;DHT22;38105;52.968;5.974;2023-01-01T05:56:41;11.00;99.90
52107;DHT22;38105;52.968;5.974;2023-01-01T05:59:10;10.90;99.90
52107;DHT22;38105;52.968;5.974;2023-01-01T06:01:41;10.90;99.90
52107;DHT22;38105;52.968;5.974;2023-01-01T06:04:07;10.90;99.90
52107;DHT22;38105;52.968;5.974;2023-01-01T06:06:33;10.80;99.90
52107;DHT22;38105;52.968;5.974;2023-01-01T06:09:04;10.90;99.90
52107;DHT22;38105;52.968;5.974;2023-01-01T06:11:36;10.80;99.90
52107;DHT22;38105;52.968;5.974;2023-01-01T06:14:02;10.80;99.90
52107;DHT22;38105;52.968;5.974;2023-01-01T06:16:31;10.70;99.90
52107;DHT22;38105;52.968;5.974;2023-01-01T06:18:59;10.70;99.90
52107;DHT22;38105;52.968;5.974;2023-01-01T06:21:30;10.70;99.90
52107;DHT22;38105;52.968;5.974;2023-01-01T06:23:57;10.70;99.90
52107;DHT22;38105;52.968;5.974;2023-01-01T06:26:29;10.70;99.90
52107;DHT22;38105;52.968;5.974;2023-01-01T06:28:55;10.70;99.90
52107;DHT22;38105;52.968;5.974;2023-01-01T06:31:24;10.60;99.90
52107;DHT22;38105;52.968;5.974;2023-01-01T06:33:57;10.60;99.90
52107;DHT22;38105;52.968;5.974;2023-01-01T06:36:26;10.60;99.90
52107;DHT22;38105;52.968;5.974;2023-01-01T06:38:54;10.50;99.90
52107;DHT22;38105;52.968;5.974;2023-01-01T06:41:30;10.60;99.90
52107;DHT22;38105;52.968;5.974;2023-01-01T06:43:57;10.60;99.90
52107;DHT22;38105;52.968;5.974;2023-01-01T06:46:28;10.60;99.90
52107;DHT22;38105;52.968;5.974;2023-01-01T06:49:01;10.60;99.90
52107;DHT22;38105;52.968;5.974;2023-01-01T06:51:42;10.60;99.90
52107;DHT22;38105;52.968;5.974;2023-01-01T06:54:10;10.60;99.90
52107;DHT22;38105;52.968;5.974;2023-01-01T06:56:36;10.60;99.90
52107;DHT22;38105;52.968;5.974;2023-01-01T06:59:02;10.60;99.90
52107;DHT22;38105;52.968;5.974;2023-01-01T07:01:36;10.50;99.90
52107;DHT22;38105;52.968;5.974;2023-01-01T07:04:07;10.60;99.90
52107;DHT22;38105;52.968;5.974;2023-01-01T07:06:40;10.60;99.90
52107;DHT22;38105;52.968;5.974;2023-01-01T07:09:09;10.50;99.90
52107;DHT22;38105;52.968;5.974;2023-01-01T07:11:35;10.50;99.90
52107;DHT22;38105;52.968;5.974;2023-01-01T07:14:03;10.50;99.90
52107;DHT22;38105;52.968;5.974;2023-01-01T07:16:37;10.60;99.90
52107;DHT22;38105;52.968;5.974;2023-01-01T07:19:03;10.50;99.90
52107;DHT22;38105;52.968;5.974;2023-01-01T07:24:03;10.50;99.90
52107;DHT22;38105;52.968;5.974;2023-01-01T07:26:32;10.50;99.90
52107;DHT22;38105;52.968;5.974;2023-01-01T07:29:01;10.40;99.90
52107;DHT22;38105;52.968;5.974;2023-01-01T07:31:27;10.50;99.90
52107;DHT22;38105;52.968;5.974;2023-01-01T07:33:55;10.40;99.90
52107;DHT22;38105;52.968;5.974;2023-01-01T07:36:23;10.50;99.90
52107;DHT22;38105;52.968;5.974;2023-01-01T07:38:53;10.40;99.90
52107;DHT22;38105;52.968;5.974;2023-01-01T07:41:22;10.50;99.90
52107;DHT22;38105;52.968;5.974;2023-01-01T07:43:48;10.40;99.90
52107;DHT22;38105;52.968;5.974;2023-01-01T07:46:19;10.50;99.90
52107;DHT22;38105;52.968;5.974;2023-01-01T07:48:45;10.50;99.90
52107;DHT22;38105;52.968;5.974;2023-01-01T07:51:11;10.50;99.90
52107;DHT22;38105;52.968;5.974;2023-01-01T07:53:41;10.40;99.90
52107;DHT22;38105;52.968;5.974;2023-01-01T07:56:09;10.40;99.90
52107;DHT22;38105;52.968;5.974;2023-01-01T07:58:38;10.40;99.90
52107;DHT22;38105;52.968;5.974;2023-01-01T08:01:12;10.30;99.90
52107;DHT22;38105;52.968;5.974;2023-01-01T08:03:39;10.30;99.90
52107;DHT22;38105;52.968;5.974;2023-01-01T08:06:11;10.40;99.90
52107;DHT22;38105;52.968;5.974;2023-01-01T08:08:37;10.30;99.90
52107;DHT22;38105;52.968;5.974;2023-01-01T08:11:06;10.30;99.90
52107;DHT22;38105;52.968;5.974;2023-01-01T08:13:40;10.30;99.90
52107;DHT22;38105;52.968;5.974;2023-01-01T08:16:07;10.20;99.90
52107;DHT22;38105;52.968;5.974;2023-01-01T08:18:32;10.30;99.90
52107;DHT22;38105;52.968;5.974;2023-01-01T08:21:06;10.20;99.90
52107;DHT22;38105;52.968;5.974;2023-01-01T08:23:34;10.20;99.90
52107;DHT22;38105;52.968;5.974;2023-01-01T08:26:03;10.20;99.90
52107;DHT22;38105;52.968;5.974;2023-01-01T08:28:30;10.20;99.90
52107;DHT22;38105;52.968;5.974;2023-01-01T08:30:58;10.20;99.90
52107;DHT22;38105;52.968;5.974;2023-01-01T08:33:24;10.20;99.90
52107;DHT22;38105;52.968;5.974;2023-01-01T08:35:55;10.20;99.90
52107;DHT22;38105;52.968;5.974;2023-01-01T08:38:29;10.20;99.90
52107;DHT22;38105;52.968;5.974;2023-01-01T08:40:54;10.20;99.90
52107;DHT22;38105;52.968;5.974;2023-01-01T08:43:25;10.20;99.90
52107;DHT22;38105;52.968;5.974;2023-01-01T08:45:51;10.30;99.90
52107;DHT22;38105;52.968;5.974;2023-01-01T08:48:21;10.30;99.90
52107;DHT22;38105;52.968;5.974;2023-01-01T08:50:54;10.30;99.90
52107;DHT22;38105;52.968;5.974;2023-01-01T08:53:28;10.20;99.90
52107;DHT22;38105;52.968;5.974;2023-01-01T08:55:57;10.30;99.90
52107;DHT22;38105;52.968;5.974;2023-01-01T08:58:23;10.30;99.90
52107;DHT22;38105;52.968;5.974;2023-01-01T09:00:52;10.30;99.90
52107;DHT22;38105;52.968;5.974;2023-01-01T09:03:18;10.30;99.90
52107;DHT22;38105;52.968;5.974;2023-01-01T09:05:47;10.30;99.90
52107;DHT22;38105;52.968;5.974;2023-01-01T09:08:16;10.30;99.90
52107;DHT22;38105;52.968;5.974;2023-01-01T09:10:46;10.40;99.90
52107;DHT22;38105;52.968;5.974;2023-01-01T09:13:16;10.40;99.90
52107;DHT22;38105;52.968;5.974;2023-01-01T09:15:45;10.40;99.90
52107;DHT22;38105;52.968;5.974;2023-01-01T09:18:18;10.30;99.90
52107;DHT22;38105;52.968;5.974;2023-01-01T09:20:46;10.30;99.90
52107;DHT22;38105;52.968;5.974;2023-01-01T09:23:17;10.40;99.90
52107;DHT22;38105;52.968;5.974;2023-01-01T09:25:45;10.40;99.90
52107;DHT22;38105;52.968;5.974;2023-01-01T09:28:14;10.40;99.90
52107;DHT22;38105;52.968;5.974;2023-01-01T09:30:42;10.50;99.90
52107;DHT22;38105;52.968;5.974;2023-01-01T09:33:08;10.40;99.90
52107;DHT22;38105;52.968;5.974;2023-01-01T09:35:36;10.50;99.90
52107;DHT22;38105;52.968;5.974;2023-01-01T09:38:08;10.50;99.90
52107;DHT22;38105;52.968;5.974;2023-01-01T09:46:00;10.60;99.90
52107;DHT22;38105;52.968;5.974;2023-01-01T09:48:28;10.60;99.90
52107;DHT22;38105;52.968;5.974;2023-01-01T09:50:57;10.60;99.90
52107;DHT22;38105;52.968;5.974;2023-01-01T09:56:01;10.80;99.90
52107;DHT22;38105;52.968;5.974;2023-01-01T09:58:35;10.80;99.90
52107;DHT22;38105;52.968;5.974;2023-01-01T10:06:31;11.00;99.90
52107;DHT22;38105;52.968;5.974;2023-01-01T10:09:19;11.10;99.90
52107;DHT22;38105;52.968;5.974;2023-01-01T10:11:52;11.10;99.90
52107;DHT22;38105;52.968;5.974;2023-01-01T10:14:33;11.20;99.90
52107;DHT22;38105;52.968;5.974;2023-01-01T10:17:24;11.30;99.90
52107;DHT22;38105;52.968;5.974;2023-01-01T10:19:56;11.50;99.90
52107;DHT22;38105;52.968;5.974;2023-01-01T10:22:32;11.70;99.90
52107;DHT22;38105;52.968;5.974;2023-01-01T10:25:16;11.80;99.90
52107;DHT22;38105;52.968;5.974;2023-01-01T10:27:59;11.70;99.90
52107;DHT22;38105;52.968;5.974;2023-01-01T10:30:28;11.60;99.90
52107;DHT22;38105;52.968;5.974;2023-01-01T10:32:57;11.60;99.90
52107;DHT22;38105;52.968;5.974;2023-01-01T10:35:45;11.50;99.90
52107;DHT22;38105;52.968;5.974;2023-01-01T10:38:22;11.40;99.90
52107;DHT22;38105;52.968;5.974;2023-01-01T10:40:53;11.40;99.90
52107;DHT22;38105;52.968;5.974;2023-01-01T10:43:22;11.30;99.90
52107;DHT22;38105;52.968;5.974;2023-01-01T10:45:52;11.30;99.90
52107;DHT22;38105;52.968;5.974;2023-01-01T10:48:23;11.20;99.90
52107;DHT22;38105;52.968;5.974;2023-01-01T10:56:08;11.30;99.90
52107;DHT22;38105;52.968;5.974;2023-01-01T10:58:56;11.30;99.90
52107;DHT22;38105;52.968;5.974;2023-01-01T11:01:29;11.30;99.90
52107;DHT22;38105;52.968;5.974;2023-01-01T11:06:44;11.40;99.90
52107;DHT22;38105;52.968;5.974;2023-01-01T11:09:24;11.30;99.90
52107;DHT22;38105;52.968;5.974;2023-01-01T11:12:01;11.40;99.90
52107;DHT22;38105;52.968;5.974;2023-01-01T11:14:38;11.40;99.90
52107;DHT22;38105;52.968;5.974;2023-01-01T11:17:05;11.40;99.90
52107;DHT22;38105;52.968;5.974;2023-01-01T11:19:36;11.50;99.90
52107;DHT22;38105;52.968;5.974;2023-01-01T11:22:04;11.50;99.90
52107;DHT22;38105;52.968;5.974;2023-01-01T11:24:32;11.40;99.90
52107;DHT22;38105;52.968;5.974;2023-01-01T11:27:16;11.40;99.90
52107;DHT22;38105;52.968;5.974;2023-01-01T11:29:45;11.40;99.90
52107;DHT22;38105;52.968;5.974;2023-01-01T11:32:28;11.40;99.90
52107;DHT22;38105;52.968;5.974;2023-01-01T11:35:02;11.30;99.90
52107;DHT22;38105;52.968;5.974;2023-01-01T11:37:31;11.30;99.90
52107;DHT22;38105;52.968;5.974;2023-01-01T11:40:16;11.30;99.90
52107;DHT22;38105;52.968;5.974;2023-01-01T11:43:01;11.30;99.90
52107;DHT22;38105;52.968;5.974;2023-01-01T11:45:38;11.40;99.90
52107;DHT22;38105;52.968;5.974;2023-01-01T11:48:32;11.40;99.90
52107;DHT22;38105;52.968;5.974;2023-01-01T11:51:02;11.50;99.90
52107;DHT22;38105;52.968;5.974;2023-01-01T11:53:31;11.50;99.90
52107;DHT22;38105;52.968;5.974;2023-01-01T11:56:19;11.50;99.90
52107;DHT22;38105;52.968;5.974;2023-01-01T12:04:05;11.80;99.90
52107;DHT22;38105;52.968;5.974;2023-01-01T12:12:08;11.80;99.90
52107;DHT22;38105;52.968;5.974;2023-01-01T12:14:45;11.80;99.90
52107;DHT22;38105;52.968;5.974;2023-01-01T12:17:32;11.70;99.90
52107;DHT22;38105;52.968;5.974;2023-01-01T12:22:40;11.80;99.90
52107;DHT22;38105;52.968;5.974;2023-01-01T12:25:19;11.70;99.90
52107;DHT22;38105;52.968;5.974;2023-01-01T12:30:24;11.70;99.90
52107;DHT22;38105;52.968;5.974;2023-01-01T12:35:46;11.70;99.90
52107;DHT22;38105;52.968;5.974;2023-01-01T12:46:48;11.70;99.90
52107;DHT22;38105;52.968;5.974;2023-01-01T12:49:45;11.70;99.90
52107;DHT22;38105;52.968;5.974;2023-01-01T12:58:53;11.70;99.90
52107;DHT22;38105;52.968;5.974;2023-01-01T13:01:22;11.70;99.90
52107;DHT22;38105;52.968;5.974;2023-01-01T13:04:04;11.80;99.90
52107;DHT22;38105;52.968;5.974;2023-01-01T13:06:43;11.80;99.90
52107;DHT22;38105;52.968;5.974;2023-01-01T13:09:16;11.80;99.90
52107;DHT22;38105;52.968;5.974;2023-01-01T13:11:45;11.90;99.90
52107;DHT22;38105;52.968;5.974;2023-01-01T13:14:12;11.80;99.90
52107;DHT22;38105;52.968;5.974;2023-01-01T13:17:00;11.80;99.90
52107;DHT22;38105;52.968;5.974;2023-01-01T13:19:38;11.80;99.90
52107;DHT22;38105;52.968;5.974;2023-01-01T13:33:24;11.60;99.90
52107;DHT22;38105;52.968;5.974;2023-01-01T13:38:52;11.60;99.90
52107;DHT22;38105;52.968;5.974;2023-01-01T13:41:39;11.50;99.90
52107;DHT22;38105;52.968;5.974;2023-01-01T13:44:20;11.50;99.90
52107;DHT22;38105;52.968;5.974;2023-01-01T13:52:56;11.40;99.90
52107;DHT22;38105;52.968;5.974;2023-01-01T14:03:53;11.20;99.90
52107;DHT22;38105;52.968;5.974;2023-01-01T14:06:34;11.20;99.90
52107;DHT22;38105;52.968;5.974;2023-01-01T14:09:13;11.20;99.90
52107;DHT22;38105;52.968;5.974;2023-01-01T14:11:39;11.10;99.90
52107;DHT22;38105;52.968;5.974;2023-01-01T14:14:26;11.10;99.90
52107;DHT22;38105;52.968;5.974;2023-01-01T14:16:58;11.00;99.90
52107;DHT22;38105;52.968;5.974;2023-01-01T14:19:28;11.00;99.90
52107;DHT22;38105;52.968;5.974;2023-01-01T14:21:54;11.00;99.90
52107;DHT22;38105;52.968;5.974;2023-01-01T14:24:21;10.90;99.90
52107;DHT22;38105;52.968;5.974;2023-01-01T14:26:48;10.90;99.90
52107;DHT22;38105;52.968;5.974;2023-01-01T14:29:28;10.90;99.90
52107;DHT22;38105;52.968;5.974;2023-01-01T14:32:10;10.90;99.90
52107;DHT22;38105;52.968;5.974;2023-01-01T14:34:41;10.80;99.90
52107;DHT22;38105;52.968;5.974;2023-01-01T14:37:23;10.80;99.90
52107;DHT22;38105;52.968;5.974;2023-01-01T14:40:25;10.70;99.90
52107;DHT22;38105;52.968;5.974;2023-01-01T14:43:19;10.80;99.90
52107;DHT22;38105;52.968;5.974;2023-01-01T14:45:50;10.70;99.90
52107;DHT22;38105;52.968;5.974;2023-01-01T14:48:24;10.70;99.90
52107;DHT22;38105;52.968;5.974;2023-01-01T14:50:53;10.60;99.90
52107;DHT22;38105;52.968;5.974;2023-01-01T14:53:29;10.60;99.90
52107;DHT22;38105;52.968;5.974;2023-01-01T14:55:57;10.70;99.90
52107;DHT22;38105;52.968;5.974;2023-01-01T14:58:29;10.60;99.90
52107;DHT22;38105;52.968;5.974;2023-01-01T15:01:16;10.60;99.90
52107;DHT22;38105;52.968;5.974;2023-01-01T15:04:00;10.60;99.90
52107;DHT22;38105;52.968;5.974;2023-01-01T15:06:32;10.60;99.90
52107;DHT22;38105;52.968;5.974;2023-01-01T15:09:00;10.50;99.90
52107;DHT22;38105;52.968;5.974;2023-01-01T15:11:29;10.50;99.90
52107;DHT22;38105;52.968;5.974;2023-01-01T15:14:01;10.50;99.90
52107;DHT22;38105;52.968;5.974;2023-01-01T15:16:31;10.40;99.90
52107;DHT22;38105;52.968;5.974;2023-01-01T15:19:15;10.40;99.90
52107;DHT22;38105;52.968;5.974;2023-01-01T15:21:41;10.30;99.90
52107;DHT22;38105;52.968;5.974;2023-01-01T15:24:16;10.40;99.90
52107;DHT22;38105;52.968;5.974;2023-01-01T15:26:48;10.30;99.90
52107;DHT22;38105;52.968;5.974;2023-01-01T15:29:36;10.20;99.90
52107;DHT22;38105;52.968;5.974;2023-01-01T15:32:22;10.20;99.90
52107;DHT22;38105;52.968;5.974;2023-01-01T15:34:52;10.10;99.90
52107;DHT22;38105;52.968;5.974;2023-01-01T15:37:35;10.20;99.90
52107;DHT22;38105;52.968;5.974;2023-01-01T15:42:46;10.20;99.90
52107;DHT22;38105;52.968;5.974;2023-01-01T15:46:13;10.10;99.90
52107;DHT22;38105;52.968;5.974;2023-01-01T15:48:50;10.00;99.90
52107;DHT22;38105;52.968;5.974;2023-01-01T15:51:21;10.00;99.90
52107;DHT22;38105;52.968;5.974;2023-01-01T15:53:59;10.00;99.90
52107;DHT22;38105;52.968;5.974;2023-01-01T15:56:29;10.00;99.90
52107;DHT22;38105;52.968;5.974;2023-01-01T15:59:04;10.00;99.90
52107;DHT22;38105;52.968;5.974;2023-01-01T16:01:32;10.00;99.90
52107;DHT22;38105;52.968;5.974;2023-01-01T16:04:17;10.00;99.90
52107;DHT22;38105;52.968;5.974;2023-01-01T16:06:50;10.00;99.90
52107;DHT22;38105;52.968;5.974;2023-01-01T16:09:19;10.00;99.90
52107;DHT22;38105;52.968;5.974;2023-01-01T16:11:56;10.00;99.90
52107;DHT22;38105;52.968;5.974;2023-01-01T16:14:23;10.00;99.90
52107;DHT22;38105;52.968;5.974;2023-01-01T16:16:53;10.00;99.90
52107;DHT22;38105;52.968;5.974;2023-01-01T16:19:24;10.00;99.90
52107;DHT22;38105;52.968;5.974;2023-01-01T16:21:50;10.10;99.90
52107;DHT22;38105;52.968;5.974;2023-01-01T16:24:18;10.00;99.90
52107;DHT22;38105;52.968;5.974;2023-01-01T16:26:45;10.00;99.90
52107;DHT22;38105;52.968;5.974;2023-01-01T16:29:11;10.10;99.90
52107;DHT22;38105;52.968;5.974;2023-01-01T16:31:37;10.00;99.90
52107;DHT22;38105;52.968;5.974;2023-01-01T16:34:09;10.00;99.90
52107;DHT22;38105;52.968;5.974;2023-01-01T16:36:35;10.10;99.90
52107;DHT22;38105;52.968;5.974;2023-01-01T16:39:04;10.00;99.90
52107;DHT22;38105;52.968;5.974;2023-01-01T16:41:35;10.10;99.90
52107;DHT22;38105;52.968;5.974;2023-01-01T16:44:03;10.00;99.90
52107;DHT22;38105;52.968;5.974;2023-01-01T16:46:28;10.00;99.90
52107;DHT22;38105;52.968;5.974;2023-01-01T16:48:57;10.10;99.90
52107;DHT22;38105;52.968;5.974;2023-01-01T16:51:32;10.10;99.90
52107;DHT22;38105;52.968;5.974;2023-01-01T16:53:59;10.10;99.90
52107;DHT22;38105;52.968;5.974;2023-01-01T16:56:26;10.20;99.90
52107;DHT22;38105;52.968;5.974;2023-01-01T16:58:53;10.20;99.90
52107;DHT22;38105;52.968;5.974;2023-01-01T17:01:22;10.20;99.90
52107;DHT22;38105;52.968;5.974;2023-01-01T17:03:48;10.30;99.90
52107;DHT22;38105;52.968;5.974;2023-01-01T17:06:17;10.30;99.90
52107;DHT22;38105;52.968;5.974;2023-01-01T17:08:43;10.30;99.90
52107;DHT22;38105;52.968;5.974;2023-01-01T17:11:11;10.20;99.90
52107;DHT22;38105;52.968;5.974;2023-01-01T17:13:43;10.30;99.90
52107;DHT22;38105;52.968;5.974;2023-01-01T17:16:11;10.20;99.90
52107;DHT22;38105;52.968;5.974;2023-01-01T17:18:39;10.30;99.90
52107;DHT22;38105;52.968;5.974;2023-01-01T17:21:10;10.40;99.90
52107;DHT22;38105;52.968;5.974;2023-01-01T17:23:39;10.30;99.90
52107;DHT22;38105;52.968;5.974;2023-01-01T17:26:14;10.40;99.90
52107;DHT22;38105;52.968;5.974;2023-01-01T17:28:41;10.40;99.90
52107;DHT22;38105;52.968;5.974;2023-01-01T17:31:09;10.30;99.90
52107;DHT22;38105;52.968;5.974;2023-01-01T17:33:36;10.40;99.90
52107;DHT22;38105;52.968;5.974;2023-01-01T17:36:06;10.50;99.90
52107;DHT22;38105;52.968;5.974;2023-01-01T17:38:32;10.50;99.90
52107;DHT22;38105;52.968;5.974;2023-01-01T17:41:08;10.40;99.90
52107;DHT22;38105;52.968;5.974;2023-01-01T17:43:37;10.50;99.90
52107;DHT22;38105;52.968;5.974;2023-01-01T17:46:18;10.50;99.90
52107;DHT22;38105;52.968;5.974;2023-01-01T17:48:47;10.50;99.90
52107;DHT22;38105;52.968;5.974;2023-01-01T17:51:14;10.50;99.90
52107;DHT22;38105;52.968;5.974;2023-01-01T17:53:43;10.60;99.90
52107;DHT22;38105;52.968;5.974;2023-01-01T17:56:12;10.60;99.90
52107;DHT22;38105;52.968;5.974;2023-01-01T17:58:42;10.50;99.90
52107;DHT22;38105;52.968;5.974;2023-01-01T18:03:48;10.50;99.90